Time;durP1;ratioP1;P1;durP2;ratioP2;P2;SDS_P1;SDS_P2;PMS_P1;PMS_P2;Temp;Humidity;BMP_temperature;BMP_pressure;BME280_temperature;BME280_humidity;BME280_pressure;Samples;Min_cycle;Max_cycle;Signal;HPM_P1;HPM_P2
2023/04/01 00:02:07;;;;;;;1.90;1.80;;;;;;;;;;5041462;28;20041;-65
2023/04/01 00:04:33;;;;;;;2.03;1.83;;;;;;;;;;5043379;28;20053;-65
2023/04/01 00:07:01;;;;;;;1.63;1.52;;;;;;;;;;5043158;28;20271;-65
2023/04/01 00:09:27;;;;;;;1.95;1.80;;;;;;;;;;5042342;28;20495;-65
2023/04/01 00:11:53;;;;;;;1.60;1.50;;;;;;;;;;5041052;28;20106;-65
2023/04/01 00:14:19;;;;;;;2.22;2.08;;;;;;;;;;5042603;28;20111;-65
2023/04/01 00:16:45;;;;;;;2.17;2.08;;;;;;;;;;5043937;28;20110;-65
2023/04/01 00:19:11;;;;;;;2.35;2.17;;;;;;;;;;5042400;28;20041;-65
2023/04/01 00:21:37;;;;;;;2.10;2.00;;;;;;;;;;5042404;28;20072;-65
2023/04/01 00:24:03;;;;;;;2.22;2.03;;;;;;;;;;5040018;28;20080;-65
2023/04/01 00:26:29;;;;;;;2.45;2.25;;;;;;;;;;5041926;28;20049;-65
2023/04/01 00:28:55;;;;;;;4.40;3.00;;;;;;;;;;5040509;28;20049;-65
2023/04/01 00:31:21;;;;;;;2.38;2.17;;;;;;;;;;5041813;28;20065;-65
2023/04/01 00:33:47;;;;;;;2.83;2.63;;;;;;;;;;5039599;28;20067;-64
2023/04/01 00:36:15;;;;;;;2.60;2.40;;;;;;;;;;5040162;28;20083;-66
2023/04/01 00:38:42;;;;;;;2.15;2.00;;;;;;;;;;5043052;28;20045;-65
2023/04/01 00:41:08;;;;;;;2.35;2.25;;;;;;;;;;5045491;28;20398;-65
2023/04/01 00:43:35;;;;;;;2.88;2.67;;;;;;;;;;5045925;28;20407;-65
2023/04/01 00:46:01;;;;;;;2.70;2.50;;;;;;;;;;5032707;28;20411;-66
2023/04/01 00:48:30;;;;;;;1.92;1.83;;;;;;;;;;5044684;28;20402;-65
2023/04/01 00:51:16;;;;;;;2.53;2.42;;;;;;;;;;5043702;28;20057;-65
2023/04/01 00:53:44;;;;;;;2.47;2.28;;;;;;;;;;5043075;28;20099;-65
2023/04/01 00:56:20;;;;;;;2.38;2.17;;;;;;;;;;5040935;28;20836;-65
2023/04/01 00:58:52;;;;;;;3.10;2.78;;;;;;;;;;5044415;28;20051;-65
2023/04/01 01:01:19;;;;;;;3.00;2.70;;;;;;;;;;5043802;28;20160;-65
2023/04/01 01:03:45;;;;;;;2.95;2.10;;;;;;;;;;5045138;28;20058;-65
2023/04/01 01:06:11;;;;;;;3.35;2.75;;;;;;;;;;5043708;28;20041;-65
2023/04/01 01:08:56;;;;;;;2.83;2.63;;;;;;;;;;5043657;28;20139;-65
2023/04/01 01:11:31;;;;;;;2.00;1.90;;;;;;;;;;5044235;28;20072;-65
2023/04/01 01:14:15;;;;;;;2.38;2.17;;;;;;;;;;5043663;28;20497;-65
2023/04/01 01:16:46;;;;;;;2.55;2.35;;;;;;;;;;5042638;28;20299;-65
2023/04/01 01:19:33;;;;;;;1.85;1.75;;;;;;;;;;5044061;28;20048;-65
2023/04/01 01:21:59;;;;;;;1.73;1.63;;;;;;;;;;5043947;28;20048;-66
2023/04/01 01:24:25;;;;;;;1.70;1.60;;;;;;;;;;5043744;28;20052;-65
2023/04/01 01:26:57;;;;;;;2.50;2.30;;;;;;;;;;5042856;28;20136;-65
2023/04/01 01:29:35;;;;;;;1.55;1.45;;;;;;;;;;5044647;28;20052;-65
2023/04/01 01:32:11;;;;;;;2.40;2.28;;;;;;;;;;5042840;28;20775;-65
2023/04/01 01:34:41;;;;;;;2.47;2.28;;;;;;;;;;5045787;28;20044;-65
2023/04/01 01:37:11;;;;;;;2.72;2.53;;;;;;;;;;5044537;28;20128;-65
2023/04/01 01:39:38;;;;;;;2.05;1.75;;;;;;;;;;5041164;28;20381;-65
2023/04/01 01:42:06;;;;;;;2.53;1.50;;;;;;;;;;5042777;28;20135;-65
2023/04/01 01:44:33;;;;;;;2.00;1.90;;;;;;;;;;5043150;28;20040;-65
2023/04/01 01:47:00;;;;;;;2.22;2.03;;;;;;;;;;5046119;28;20057;-65
2023/04/01 01:49:29;;;;;;;1.77;1.67;;;;;;;;;;5043356;28;20052;-65
2023/04/01 01:51:55;;;;;;;0.98;0.98;;;;;;;;;;5043484;28;20048;-65
2023/04/01 01:54:21;;;;;;;1.73;1.00;;;;;;;;;;5043383;28;20136;-65
2023/04/01 01:56:50;;;;;;;1.00;1.00;;;;;;;;;;5044488;28;20044;-65
2023/04/01 01:59:16;;;;;;;1.40;1.30;;;;;;;;;;5043199;28;20041;-65
2023/04/01 02:01:45;;;;;;;1.40;1.30;;;;;;;;;;5042932;28;20094;-65
2023/04/01 02:04:12;;;;;;;1.83;1.73;;;;;;;;;;5043276;28;20498;-65
2023/04/01 02:06:40;;;;;;;1.80;1.70;;;;;;;;;;5040926;28;20522;-65
2023/04/01 02:09:10;;;;;;;2.92;2.72;;;;;;;;;;5044247;28;20048;-65
2023/04/01 02:11:45;;;;;;;2.08;1.90;;;;;;;;;;5043895;28;20598;-65
2023/04/01 02:14:14;;;;;;;2.10;2.00;;;;;;;;;;5041923;28;20041;-65
2023/04/01 02:16:45;;;;;;;1.70;1.60;;;;;;;;;;5041999;28;20072;-65
2023/04/01 02:19:12;;;;;;;2.45;1.90;;;;;;;;;;5041945;28;20045;-65
2023/04/01 02:21:39;;;;;;;1.80;1.70;;;;;;;;;;5043337;28;20103;-65
2023/04/01 02:24:08;;;;;;;2.67;2.47;;;;;;;;;;5042741;28;20052;-65
2023/04/01 02:26:35;;;;;;;1.70;1.60;;;;;;;;;;5041798;28;20049;-65
2023/04/01 02:29:01;;;;;;;1.60;1.50;;;;;;;;;;5043528;28;20057;-66
2023/04/01 02:31:27;;;;;;;2.03;1.20;;;;;;;;;;5042619;28;20056;-66
2023/04/01 02:33:54;;;;;;;1.58;1.35;;;;;;;;;;5041943;28;20200;-65
2023/04/01 02:36:21;;;;;;;2.58;2.38;;;;;;;;;;5044059;28;20075;-65
2023/04/01 02:38:47;;;;;;;2.58;2.38;;;;;;;;;;5042194;28;20037;-65
2023/04/01 02:41:13;;;;;;;2.20;2.10;;;;;;;;;;5041490;28;20053;-65
2023/04/01 02:43:39;;;;;;;2.25;2.15;;;;;;;;;;5045399;28;20041;-65
2023/04/01 02:46:05;;;;;;;2.35;2.25;;;;;;;;;;5044594;28;20051;-65
2023/04/01 02:48:31;;;;;;;2.70;2.50;;;;;;;;;;5041096;28;20126;-65
2023/04/01 02:50:57;;;;;;;2.53;2.35;;;;;;;;;;5041761;28;20483;-65
2023/04/01 02:53:23;;;;;;;2.90;2.70;;;;;;;;;;5043295;28;20072;-65
2023/04/01 02:55:51;;;;;;;2.10;2.00;;;;;;;;;;5042933;28;20443;-65
2023/04/01 02:58:17;;;;;;;3.20;3.00;;;;;;;;;;5041240;28;20086;-65
2023/04/01 03:00:43;;;;;;;2.83;2.63;;;;;;;;;;5041662;28;20041;-65
2023/04/01 03:03:09;;;;;;;4.57;2.92;;;;;;;;;;5043104;28;20040;-66
2023/04/01 03:05:36;;;;;;;3.47;3.28;;;;;;;;;;5044006;28;20037;-65
2023/04/01 03:08:02;;;;;;;2.60;2.40;;;;;;;;;;5042007;28;20083;-65
2023/04/01 03:10:28;;;;;;;4.00;3.70;;;;;;;;;;5043604;28;20056;-65
2023/04/01 03:12:54;;;;;;;2.55;2.35;;;;;;;;;;5042741;28;20045;-65
2023/04/01 03:15:21;;;;;;;3.00;2.72;;;;;;;;;;5040874;28;20041;-66
2023/04/01 03:17:47;;;;;;;2.08;1.98;;;;;;;;;;5040699;28;20045;-65
2023/04/01 03:20:13;;;;;;;4.10;3.80;;;;;;;;;;5042821;28;20487;-65
2023/04/01 03:22:39;;;;;;;4.47;3.97;;;;;;;;;;5041622;28;20446;-65
2023/04/01 03:25:07;;;;;;;4.13;3.83;;;;;;;;;;5041875;28;20438;-65
2023/04/01 03:27:35;;;;;;;4.45;4.15;;;;;;;;;;5039563;28;20060;-65
2023/04/01 03:30:01;;;;;;;4.45;4.13;;;;;;;;;;5041718;28;20099;-65
2023/04/01 03:32:27;;;;;;;3.92;3.63;;;;;;;;;;5043202;28;20053;-65
2023/04/01 03:34:53;;;;;;;4.20;3.90;;;;;;;;;;5042323;28;20066;-65
2023/04/01 03:37:19;;;;;;;3.70;3.38;;;;;;;;;;5040651;28;20056;-65
2023/04/01 03:39:45;;;;;;;2.88;2.67;;;;;;;;;;5042181;28;20673;-65
2023/04/01 03:42:12;;;;;;;3.10;2.90;;;;;;;;;;5043035;28;20037;-65
2023/04/01 03:44:38;;;;;;;3.53;3.22;;;;;;;;;;5043565;28;20113;-65
2023/04/01 03:47:04;;;;;;;2.80;2.60;;;;;;;;;;5043220;28;20471;-65
2023/04/01 03:49:31;;;;;;;3.10;2.90;;;;;;;;;;5040816;28;20055;-65
2023/04/01 03:51:58;;;;;;;4.03;3.72;;;;;;;;;;5041824;28;20726;-65
2023/04/01 03:54:24;;;;;;;4.03;3.65;;;;;;;;;;5042742;28;20494;-65
2023/04/01 03:56:50;;;;;;;2.95;2.75;;;;;;;;;;5041155;28;20045;-65
2023/04/01 03:59:16;;;;;;;3.92;3.63;;;;;;;;;;5041627;28;20550;-65
2023/04/01 04:01:42;;;;;;;3.63;3.42;;;;;;;;;;5040690;28;20044;-65
2023/04/01 04:04:12;;;;;;;3.80;3.50;;;;;;;;;;5040428;28;20144;-65
2023/04/01 04:06:38;;;;;;;3.47;3.28;;;;;;;;;;5041425;28;20128;-65
2023/04/01 04:09:04;;;;;;;2.90;2.70;;;;;;;;;;5040697;28;20090;-65
2023/04/01 04:11:32;;;;;;;2.50;2.30;;;;;;;;;;5040943;28;20553;-65
2023/04/01 04:13:58;;;;;;;4.75;4.35;;;;;;;;;;5045897;28;20069;-65
2023/04/01 04:16:25;;;;;;;4.18;3.78;;;;;;;;;;5050386;28;20140;-65
2023/04/01 04:18:51;;;;;;;4.25;3.80;;;;;;;;;;5048681;28;20519;-65
2023/04/01 04:21:17;;;;;;;3.30;3.10;;;;;;;;;;5047462;28;20059;-65
2023/04/01 04:23:43;;;;;;;2.70;2.53;;;;;;;;;;5048497;28;20036;-65
2023/04/01 04:26:11;;;;;;;4.03;3.72;;;;;;;;;;5047842;28;20111;-65
2023/04/01 04:28:37;;;;;;;3.45;3.15;;;;;;;;;;5048964;28;20049;-65
2023/04/01 04:31:05;;;;;;;3.33;3.03;;;;;;;;;;5046383;28;20068;-65
2023/04/01 04:33:31;;;;;;;3.92;3.63;;;;;;;;;;5048460;28;20419;-65
2023/04/01 04:35:58;;;;;;;3.95;3.65;;;;;;;;;;5047926;28;20128;-65
2023/04/01 04:38:24;;;;;;;4.43;4.07;;;;;;;;;;5048776;28;20044;-66
2023/04/01 04:40:50;;;;;;;4.05;3.75;;;;;;;;;;5046313;28;20049;-65
2023/04/01 04:43:17;;;;;;;4.50;4.13;;;;;;;;;;5049327;28;20131;-65
2023/04/01 04:45:43;;;;;;;5.35;4.90;;;;;;;;;;5047674;28;20045;-65
2023/04/01 04:48:09;;;;;;;4.82;4.43;;;;;;;;;;5047463;28;20446;-65
2023/04/01 04:50:35;;;;;;;4.53;3.95;;;;;;;;;;5048280;28;20247;-65
2023/04/01 04:53:02;;;;;;;5.03;4.63;;;;;;;;;;5047738;28;20166;-65
2023/04/01 04:55:28;;;;;;;4.65;4.22;;;;;;;;;;5047575;28;20048;-65
2023/04/01 04:57:54;;;;;;;4.07;3.78;;;;;;;;;;5046356;28;20402;-65
2023/04/01 05:00:20;;;;;;;5.65;5.25;;;;;;;;;;5046673;28;20110;-65
2023/04/01 05:02:46;;;;;;;5.03;4.63;;;;;;;;;;5047039;28;20140;-65
2023/04/01 05:05:12;;;;;;;4.25;3.95;;;;;;;;;;5048236;28;20036;-65
2023/04/01 05:07:38;;;;;;;4.45;4.13;;;;;;;;;;5047944;28;20851;-65
2023/04/01 05:10:04;;;;;;;4.82;4.43;;;;;;;;;;5046844;28;20132;-65
2023/04/01 05:12:32;;;;;;;5.32;4.93;;;;;;;;;;5046814;28;20505;-65
2023/04/01 05:14:58;;;;;;;5.07;4.68;;;;;;;;;;5045608;28;20480;-65
2023/04/01 05:17:24;;;;;;;4.63;4.32;;;;;;;;;;5048513;28;20060;-65
2023/04/01 05:19:50;;;;;;;4.45;4.15;;;;;;;;;;5047842;28;20045;-65
2023/04/01 05:22:16;;;;;;;4.35;4.05;;;;;;;;;;5048323;28;20052;-65
2023/04/01 05:24:42;;;;;;;4.00;3.70;;;;;;;;;;5044299;28;20045;-65
2023/04/01 05:27:08;;;;;;;4.40;4.10;;;;;;;;;;5044815;28;20070;-65
2023/04/01 05:29:34;;;;;;;4.40;4.00;;;;;;;;;;5045200;28;20037;-65
2023/04/01 05:32:00;;;;;;;4.25;3.95;;;;;;;;;;5044274;28;20053;-65
2023/04/01 05:34:26;;;;;;;4.75;4.35;;;;;;;;;;5045417;28;20033;-65
2023/04/01 05:36:52;;;;;;;6.30;5.80;;;;;;;;;;5042293;28;20041;-65
2023/04/01 05:39:18;;;;;;;6.65;6.05;;;;;;;;;;5044013;28;20049;-65
2023/04/01 05:41:45;;;;;;;6.00;5.50;;;;;;;;;;5043257;28;20041;-65
2023/04/01 05:44:12;;;;;;;7.45;6.85;;;;;;;;;;5043521;28;20048;-65
2023/04/01 05:46:38;;;;;;;5.47;5.07;;;;;;;;;;5044030;28;20060;-65
2023/04/01 05:49:04;;;;;;;7.38;6.68;;;;;;;;;;5043750;28;20033;-65
2023/04/01 05:51:30;;;;;;;7.40;6.70;;;;;;;;;;5045151;28;20056;-65
2023/04/01 05:53:56;;;;;;;7.55;6.93;;;;;;;;;;5044523;28;20053;-65
2023/04/01 05:56:22;;;;;;;7.30;6.63;;;;;;;;;;5044083;28;20041;-65
2023/04/01 05:58:51;;;;;;;7.55;6.95;;;;;;;;;;5043174;28;20044;-65
2023/04/01 06:01:18;;;;;;;6.93;6.32;;;;;;;;;;5043245;28;20052;-65
2023/04/01 06:03:44;;;;;;;9.30;8.45;;;;;;;;;;5044257;28;20064;-65
2023/04/01 06:06:15;;;;;;;10.05;9.05;;;;;;;;;;5037131;28;20045;-65
2023/04/01 06:08:41;;;;;;;7.78;7.10;;;;;;;;;;5042738;28;20515;-65
2023/04/01 06:11:10;;;;;;;8.27;7.47;;;;;;;;;;5041804;28;20044;-65
2023/04/01 06:13:45;;;;;;;7.55;6.85;;;;;;;;;;5043715;28;20496;-65
2023/04/01 06:16:32;;;;;;;8.32;7.53;;;;;;;;;;5041811;28;20380;-65
2023/04/01 06:19:06;;;;;;;7.15;6.53;;;;;;;;;;5043213;28;20049;-65
2023/04/01 06:21:32;;;;;;;6.45;5.95;;;;;;;;;;5044361;28;20131;-65
2023/04/01 06:24:12;;;;;;;6.95;6.43;;;;;;;;;;5042111;28;20141;-65
2023/04/01 06:26:38;;;;;;;8.13;7.53;;;;;;;;;;5043772;28;20565;-65
2023/04/01 06:29:26;;;;;;;6.40;5.90;;;;;;;;;;5043216;28;20045;-65
2023/04/01 06:32:01;;;;;;;8.50;7.70;;;;;;;;;;5040185;28;20666;-65
2023/04/01 06:34:44;;;;;;;9.02;8.23;;;;;;;;;;5041229;28;20052;-65
2023/04/01 06:37:29;;;;;;;9.85;8.82;;;;;;;;;;5042029;28;20566;-65
2023/04/01 06:39:55;;;;;;;8.10;7.40;;;;;;;;;;5041219;28;20407;-65
2023/04/01 06:42:40;;;;;;;8.23;7.03;;;;;;;;;;5042216;28;20044;-65
2023/04/01 06:45:09;;;;;;;7.22;6.60;;;;;;;;;;5043366;28;20098;-65
2023/04/01 06:47:54;;;;;;;9.45;8.55;;;;;;;;;;5040838;28;20045;-65
2023/04/01 06:50:41;;;;;;;9.98;9.13;;;;;;;;;;5042641;28;20418;-65
2023/04/01 06:53:07;;;;;;;8.20;7.45;;;;;;;;;;5042683;28;20057;-67
2023/04/01 06:55:42;;;;;;;8.07;7.45;;;;;;;;;;5042620;28;20037;-67
2023/04/01 06:58:18;;;;;;;8.30;7.60;;;;;;;;;;5042784;28;20049;-67
2023/04/01 07:00:46;;;;;;;8.50;7.70;;;;;;;;;;5039040;28;20053;-66
2023/04/01 07:03:30;;;;;;;8.15;7.45;;;;;;;;;;5043444;28;20033;-67
2023/04/01 07:06:04;;;;;;;10.65;9.68;;;;;;;;;;5043988;28;20144;-64
2023/04/01 07:08:32;;;;;;;10.52;9.52;;;;;;;;;;5043950;28;20041;-64
2023/04/01 07:11:02;;;;;;;11.82;10.63;;;;;;;;;;5039483;28;20159;-64
2023/04/01 07:13:31;;;;;;;9.60;8.70;;;;;;;;;;5039790;28;20126;-64
2023/04/01 07:16:17;;;;;;;8.25;7.63;;;;;;;;;;5040381;28;20037;-64
2023/04/01 07:19:13;;;;;;;8.15;7.45;;;;;;;;;;5043833;28;20044;-66
2023/04/01 07:21:45;;;;;;;11.75;10.75;;;;;;;;;;5029476;28;20060;-65
2023/04/01 07:24:15;;;;;;;8.98;8.18;;;;;;;;;;5042988;28;20102;-66
2023/04/01 07:26:41;;;;;;;9.82;8.98;;;;;;;;;;5043751;28;20491;-65
2023/04/01 07:29:12;;;;;;;8.50;7.70;;;;;;;;;;5042628;28;20087;-66
2023/04/01 07:31:57;;;;;;;12.25;11.05;;;;;;;;;;5041820;28;20060;-66
2023/04/01 07:34:27;;;;;;;12.82;11.60;;;;;;;;;;5044592;28;20041;-66
2023/04/01 07:36:56;;;;;;;11.45;10.38;;;;;;;;;;5042754;28;20056;-66
2023/04/01 07:39:40;;;;;;;12.15;11.05;;;;;;;;;;5042465;28;20106;-66
2023/04/01 07:42:25;;;;;;;12.48;11.27;;;;;;;;;;5042179;28;20044;-66
2023/04/01 07:45:00;;;;;;;8.80;8.07;;;;;;;;;;5042493;28;20044;-66
2023/04/01 07:47:26;;;;;;;12.00;10.80;;;;;;;;;;5039525;28;20056;-66
2023/04/01 07:50:11;;;;;;;10.60;9.70;;;;;;;;;;5041561;28;20060;-66
2023/04/01 07:52:37;;;;;;;12.73;11.43;;;;;;;;;;5040364;28;20388;-66
2023/04/01 07:55:03;;;;;;;11.48;10.48;;;;;;;;;;5042373;28;20086;-67
2023/04/01 07:57:51;;;;;;;12.00;10.82;;;;;;;;;;5040240;28;20045;-66
2023/04/01 08:00:20;;;;;;;9.85;8.88;;;;;;;;;;5036458;28;20080;-65
2023/04/01 08:03:05;;;;;;;7.95;7.25;;;;;;;;;;5041771;28;20095;-65
2023/04/01 08:05:33;;;;;;;9.45;8.55;;;;;;;;;;5042526;28;20407;-65
2023/04/01 08:08:18;;;;;;;8.90;8.10;;;;;;;;;;5035386;28;20149;-65
2023/04/01 08:10:50;;;;;;;9.20;8.38;;;;;;;;;;5042825;28;20522;-66
2023/04/01 08:13:21;;;;;;;9.13;8.23;;;;;;;;;;5043263;28;20056;-66
2023/04/01 08:15:54;;;;;;;8.65;7.85;;;;;;;;;;5044916;28;20048;-67
2023/04/01 08:18:27;;;;;;;8.90;8.20;;;;;;;;;;5044036;28;20096;-64
2023/04/01 08:21:01;;;;;;;9.90;9.10;;;;;;;;;;5044182;28;20431;-63
2023/04/01 08:23:29;;;;;;;8.70;7.80;;;;;;;;;;5044657;28;20102;-66
2023/04/01 08:26:05;;;;;;;10.18;9.25;;;;;;;;;;5043671;28;20132;-65
2023/04/01 08:28:35;;;;;;;8.52;7.82;;;;;;;;;;5041359;28;20057;-65
2023/04/01 08:31:04;;;;;;;7.80;7.10;;;;;;;;;;5037977;28;20049;-66
2023/04/01 08:33:32;;;;;;;7.85;7.15;;;;;;;;;;5039277;28;20048;-68
2023/04/01 08:36:07;;;;;;;8.70;8.00;;;;;;;;;;5033439;28;20057;-65
2023/04/01 08:38:37;;;;;;;7.65;6.95;;;;;;;;;;5042152;28;20091;-65
2023/04/01 08:41:15;;;;;;;7.30;6.70;;;;;;;;;;5042088;28;20060;-66
2023/04/01 08:43:47;;;;;;;10.60;9.60;;;;;;;;;;5039506;28;20048;-65
2023/04/01 08:46:28;;;;;;;7.53;6.93;;;;;;;;;;5036814;28;20352;-66
2023/04/01 08:49:13;;;;;;;4.90;4.47;;;;;;;;;;5028371;28;20390;-65
2023/04/01 08:51:42;;;;;;;3.30;3.03;;;;;;;;;;5029800;28;20077;-65
2023/04/01 08:54:29;;;;;;;3.88;3.53;;;;;;;;;;5035066;28;20047;-65
2023/04/01 08:57:04;;;;;;;3.38;2.90;;;;;;;;;;5043019;28;20469;-65
2023/04/01 08:59:33;;;;;;;3.63;3.33;;;;;;;;;;5044737;28;20179;-65
2023/04/01 09:02:07;;;;;;;4.38;4.03;;;;;;;;;;5046557;28;20056;-65
2023/04/01 09:04:39;;;;;;;4.28;3.88;;;;;;;;;;5048015;28;20049;-65
2023/04/01 09:07:24;;;;;;;3.08;2.88;;;;;;;;;;5045493;28;20068;-65
2023/04/01 09:09:56;;;;;;;4.57;4.18;;;;;;;;;;5046962;28;20519;-65
2023/04/01 09:12:45;;;;;;;3.85;3.55;;;;;;;;;;5032539;28;20045;-65
2023/04/01 09:15:17;;;;;;;3.22;2.92;;;;;;;;;;5026934;28;20092;-65
2023/04/01 09:18:03;;;;;;;3.50;3.20;;;;;;;;;;5027864;28;20048;-66
2023/04/01 09:20:32;;;;;;;3.88;3.58;;;;;;;;;;5027351;28;20486;-67
2023/04/01 09:23:16;;;;;;;3.92;3.63;;;;;;;;;;5034641;28;20037;-66
2023/04/01 09:25:48;;;;;;;4.72;2.90;;;;;;;;;;5046288;28;20052;-68
2023/04/01 09:28:28;;;;;;;3.30;3.00;;;;;;;;;;5026509;28;20053;-68
2023/04/01 09:31:17;;;;;;;5.10;2.80;;;;;;;;;;5036193;28;20103;-67
2023/04/01 09:34:01;;;;;;;2.70;2.50;;;;;;;;;;5025991;28;20068;-67
2023/04/01 09:36:47;;;;;;;2.15;1.92;;;;;;;;;;5036768;28;20786;-67
2023/04/01 09:39:13;;;;;;;3.58;2.90;;;;;;;;;;5026938;28;20057;-67
2023/04/01 09:41:58;;;;;;;2.17;1.98;;;;;;;;;;5027242;28;20037;-67
2023/04/01 09:44:33;;;;;;;2.67;2.20;;;;;;;;;;5029077;28;20136;-67
2023/04/01 09:47:05;;;;;;;2.00;1.90;;;;;;;;;;5042918;28;20048;-67
2023/04/01 09:49:31;;;;;;;2.35;1.60;;;;;;;;;;5045381;28;20063;-67
2023/04/01 09:52:00;;;;;;;3.97;2.42;;;;;;;;;;5041891;28;20056;-66
2023/04/01 09:54:45;;;;;;;2.10;1.90;;;;;;;;;;5044076;28;20137;-67
2023/04/01 09:57:22;;;;;;;1.98;1.80;;;;;;;;;;5044123;28;20051;-66
2023/04/01 09:59:49;;;;;;;2.42;2.05;;;;;;;;;;5036688;28;20444;-66
2023/04/01 10:02:28;;;;;;;1.92;1.83;;;;;;;;;;5039620;28;20114;-66
2023/04/01 10:04:54;;;;;;;2.47;2.28;;;;;;;;;;5028642;28;20718;-66
2023/04/01 10:07:24;;;;;;;1.73;1.60;;;;;;;;;;5036421;28;20063;-67
2023/04/01 10:10:08;;;;;;;1.63;1.50;;;;;;;;;;5045609;28;20687;-67
2023/04/01 10:13:07;;;;;;;2.17;1.92;;;;;;;;;;5042467;28;20049;-66
2023/04/01 10:15:45;;;;;;;2.03;1.90;;;;;;;;;;5011042;28;20049;-66
2023/04/01 10:18:20;;;;;;;1.90;1.58;;;;;;;;;;5044017;28;20063;-67
2023/04/01 10:20:55;;;;;;;1.75;1.65;;;;;;;;;;5029522;28;20492;-66
2023/04/01 10:23:21;;;;;;;1.60;1.50;;;;;;;;;;5037331;28;20052;-66
2023/04/01 10:26:06;;;;;;;2.20;1.80;;;;;;;;;;5038622;28;20496;-66
2023/04/01 10:28:32;;;;;;;2.00;1.80;;;;;;;;;;5034969;28;20064;-66
2023/04/01 10:31:17;;;;;;;1.75;1.10;;;;;;;;;;5039505;28;20508;-66
2023/04/01 10:33:55;;;;;;;5.00;1.58;;;;;;;;;;5044567;28;20124;-65
2023/04/01 10:36:40;;;;;;;1.83;1.40;;;;;;;;;;5045417;28;20041;-65
2023/04/01 10:39:12;;;;;;;1.67;1.48;;;;;;;;;;5042748;28;20338;-65
2023/04/01 10:41:50;;;;;;;2.25;1.20;;;;;;;;;;5044739;28;20122;-65
2023/04/01 10:44:19;;;;;;;2.78;1.30;;;;;;;;;;5044429;28;20045;-66
2023/04/01 10:46:57;;;;;;;2.28;1.63;;;;;;;;;;5043563;28;20083;-65
2023/04/01 10:49:23;;;;;;;1.13;0.90;;;;;;;;;;5044448;28;20039;-66
2023/04/01 10:52:09;;;;;;;0.95;0.85;;;;;;;;;;5037590;28;20041;-66
2023/04/01 10:54:54;;;;;;;0.80;0.80;;;;;;;;;;5039555;28;20443;-66
2023/04/01 10:57:29;;;;;;;1.00;0.98;;;;;;;;;;5035467;28;20114;-65
2023/04/01 11:00:18;;;;;;;1.40;0.80;;;;;;;;;;5033496;28;20040;-66
2023/04/01 11:03:04;;;;;;;0.90;0.90;;;;;;;;;;5033819;28;20065;-66
2023/04/01 11:05:31;;;;;;;3.30;1.17;;;;;;;;;;5033508;28;20176;-66
2023/04/01 11:08:03;;;;;;;0.95;0.90;;;;;;;;;;5038756;28;20037;-66
2023/04/01 11:10:41;;;;;;;1.17;1.08;;;;;;;;;;5040420;28;20721;-66
2023/04/01 11:13:10;;;;;;;2.85;0.75;;;;;;;;;;5043608;28;20509;-66
2023/04/01 11:15:48;;;;;;;1.20;1.10;;;;;;;;;;5045295;28;20040;-72
2023/04/01 11:18:33;;;;;;;1.10;0.98;;;;;;;;;;5039326;28;20529;-67
2023/04/01 11:21:15;;;;;;;1.25;1.15;;;;;;;;;;5041877;28;20041;-67
2023/04/01 11:23:50;;;;;;;1.60;0.73;;;;;;;;;;5043764;28;20052;-67
2023/04/01 11:26:30;;;;;;;1.05;0.93;;;;;;;;;;5036132;28;20684;-70
2023/04/01 11:28:56;;;;;;;1.88;1.20;;;;;;;;;;5042133;28;20051;-66
2023/04/01 11:31:32;;;;;;;1.80;1.50;;;;;;;;;;5042651;28;20053;-68
2023/04/01 11:34:17;;;;;;;1.60;1.50;;;;;;;;;;5041295;28;20083;-68
2023/04/01 11:37:01;;;;;;;2.80;1.40;;;;;;;;;;5039962;28;20045;-67
2023/04/01 11:39:27;;;;;;;5.00;1.17;;;;;;;;;;5037610;28;20049;-67
2023/04/01 11:42:02;;;;;;;1.25;1.15;;;;;;;;;;5042932;28;20053;-68
2023/04/01 11:44:30;;;;;;;1.38;1.23;;;;;;;;;;5039736;28;20339;-66
2023/04/01 11:47:15;;;;;;;1.50;1.20;;;;;;;;;;5036814;28;20482;-67
2023/04/01 11:50:00;;;;;;;3.40;1.55;;;;;;;;;;5029736;28;20069;-67
2023/04/01 11:52:26;;;;;;;1.13;1.02;;;;;;;;;;5035216;28;20056;-66
2023/04/01 11:54:54;;;;;;;1.38;1.02;;;;;;;;;;5040847;28;20047;-66
2023/04/01 11:57:40;;;;;;;1.20;1.10;;;;;;;;;;5031572;28;20102;-65
2023/04/01 12:00:15;;;;;;;1.60;1.15;;;;;;;;;;5037714;28;20056;-66
2023/04/01 12:03:00;;;;;;;1.38;1.15;;;;;;;;;;5037073;28;20061;-66
2023/04/01 12:05:26;;;;;;;1.20;0.95;;;;;;;;;;5042920;28;20049;-66
2023/04/01 12:07:58;;;;;;;1.90;1.20;;;;;;;;;;5041188;28;20033;-66
2023/04/01 12:10:34;;;;;;;2.30;1.13;;;;;;;;;;5042641;28;20465;-66
2023/04/01 12:13:23;;;;;;;0.88;0.80;;;;;;;;;;5043513;28;20199;-65
2023/04/01 12:16:02;;;;;;;0.70;0.70;;;;;;;;;;5044082;28;20111;-66
2023/04/01 12:18:40;;;;;;;0.90;0.80;;;;;;;;;;5044084;28;20339;-66
2023/04/01 12:21:12;;;;;;;1.00;0.80;;;;;;;;;;5042693;28;20052;-66
2023/04/01 12:23:59;;;;;;;1.30;1.20;;;;;;;;;;5043507;28;20072;-66
2023/04/01 12:26:30;;;;;;;1.05;0.95;;;;;;;;;;5007964;28;20442;-66
2023/04/01 12:29:12;;;;;;;0.85;0.85;;;;;;;;;;5040361;28;20531;-66
2023/04/01 12:31:43;;;;;;;1.17;0.80;;;;;;;;;;5043179;28;20087;-66
2023/04/01 12:34:28;;;;;;;1.63;0.75;;;;;;;;;;5045555;28;20064;-66
2023/04/01 12:37:18;;;;;;;0.93;0.90;;;;;;;;;;5047503;28;20052;-66
2023/04/01 12:39:56;;;;;;;1.23;1.00;;;;;;;;;;5046652;28;20131;-65
2023/04/01 12:42:40;;;;;;;0.93;0.70;;;;;;;;;;5046974;28;20179;-66
2023/04/01 12:45:09;;;;;;;0.90;0.90;;;;;;;;;;5045352;28;20053;-66
2023/04/01 12:47:50;;;;;;;1.05;0.85;;;;;;;;;;5046338;28;20076;-67
2023/04/01 12:50:23;;;;;;;1.17;0.88;;;;;;;;;;5047300;28;20491;-65
2023/04/01 12:53:07;;;;;;;2.38;1.20;;;;;;;;;;5046486;28;20406;-68
2023/04/01 12:55:40;;;;;;;2.17;0.70;;;;;;;;;;5043105;28;20114;-65
2023/04/01 12:58:16;;;;;;;0.90;0.60;;;;;;;;;;5043619;28;20060;-67
2023/04/01 13:01:02;;;;;;;1.85;0.80;;;;;;;;;;5036347;28;20049;-66
2023/04/01 13:03:38;;;;;;;1.83;1.20;;;;;;;;;;5038867;28;20048;-67
2023/04/01 13:06:23;;;;;;;1.05;0.90;;;;;;;;;;5043217;28;20063;-67
2023/04/01 13:08:52;;;;;;;0.70;0.70;;;;;;;;;;5041383;28;20060;-66
2023/04/01 13:11:39;;;;;;;0.77;0.77;;;;;;;;;;5040382;28;20628;-66
2023/04/01 13:14:13;;;;;;;2.78;1.17;;;;;;;;;;5043452;28;20056;-66
2023/04/01 13:16:46;;;;;;;1.17;1.00;;;;;;;;;;5047890;28;20037;-66
2023/04/01 13:19:12;;;;;;;1.55;1.00;;;;;;;;;;5043968;28;20052;-66
2023/04/01 13:21:54;;;;;;;1.52;0.80;;;;;;;;;;5042071;28;20094;-65
2023/04/01 13:24:20;;;;;;;;;;;;;;;;;;5039913;28;20425;-67
2023/04/01 13:26:59;;;;;;;2.53;1.00;;;;;;;;;;5035368;28;20024;-67
2023/04/01 13:29:32;;;;;;;2.05;0.90;;;;;;;;;;5044526;28;20076;-66
2023/04/01 13:32:02;;;;;;;0.80;0.80;;;;;;;;;;5037212;28;20048;-66
2023/04/01 13:34:33;;;;;;;2.33;1.05;;;;;;;;;;5033279;28;20078;-66
2023/04/01 13:37:17;;;;;;;1.45;0.98;;;;;;;;;;5039731;28;20172;-65
2023/04/01 13:39:52;;;;;;;1.35;0.80;;;;;;;;;;5038130;28;20508;-67
2023/04/01 13:42:25;;;;;;;0.98;0.88;;;;;;;;;;5042011;28;20060;-66
2023/04/01 13:44:51;;;;;;;;;;;;;;;;;;5042840;28;20047;-68
2023/04/01 13:47:49;;;;;;;1.83;1.27;;;;;;;;;;5038982;28;19921;-66
2023/04/01 13:50:34;;;;;;;0.90;0.90;;;;;;;;;;5004260;28;20077;-66
2023/04/01 13:53:03;;;;;;;0.88;0.77;;;;;;;;;;5038486;28;20042;-66
2023/04/01 13:55:50;;;;;;;1.13;0.73;;;;;;;;;;5041249;28;20124;-65
2023/04/01 13:58:35;;;;;;;0.57;0.50;;;;;;;;;;5038998;28;20059;-65
2023/04/01 14:01:14;;;;;;;1.25;0.68;;;;;;;;;;5040040;28;20037;-67
2023/04/01 14:03:43;;;;;;;2.35;0.75;;;;;;;;;;5036465;28;20524;-66
2023/04/01 14:06:09;;;;;;;1.02;0.60;;;;;;;;;;5037095;28;20041;-66
2023/04/01 14:08:35;;;;;;;1.20;0.75;;;;;;;;;;5040302;28;20055;-66
2023/04/01 14:11:14;;;;;;;1.40;0.65;;;;;;;;;;5046392;28;20040;-68
2023/04/01 14:13:58;;;;;;;1.48;0.73;;;;;;;;;;5046910;28;20215;-67
2023/04/01 14:16:27;;;;;;;0.75;0.70;;;;;;;;;;5044655;28;20388;-66
2023/04/01 14:19:12;;;;;;;1.00;0.85;;;;;;;;;;5042244;28;20048;-66
2023/04/01 14:21:44;;;;;;;0.90;0.82;;;;;;;;;;5043312;28;20044;-66
2023/04/01 14:24:19;;;;;;;1.77;0.70;;;;;;;;;;5045678;28;20486;-67
2023/04/01 14:27:03;;;;;;;0.70;0.70;;;;;;;;;;5044905;28;20053;-66
2023/04/01 14:29:30;;;;;;;0.75;0.73;;;;;;;;;;5044753;28;20391;-65
2023/04/01 14:31:57;;;;;;;0.65;0.50;;;;;;;;;;5045783;28;20071;-66
2023/04/01 14:34:29;;;;;;;0.70;0.70;;;;;;;;;;5046571;28;20045;-66
2023/04/01 14:36:58;;;;;;;0.80;0.70;;;;;;;;;;5044301;28;20106;-65
2023/04/01 14:39:43;;;;;;;0.80;0.80;;;;;;;;;;5044709;28;20067;-66
2023/04/01 14:42:39;;;;;;;1.00;0.70;;;;;;;;;;5045933;28;20037;-66
2023/04/01 14:45:23;;;;;;;0.57;0.57;;;;;;;;;;5040599;28;20052;-66
2023/04/01 14:48:08;;;;;;;1.02;0.60;;;;;;;;;;5026258;28;20064;-66
2023/04/01 14:50:48;;;;;;;0.70;0.70;;;;;;;;;;5024672;28;20053;-67
2023/04/01 14:53:17;;;;;;;1.40;1.00;;;;;;;;;;5041279;28;20133;-66
2023/04/01 14:55:43;;;;;;;2.47;1.00;;;;;;;;;;5044521;28;20128;-66
2023/04/01 14:58:16;;;;;;;0.88;0.88;;;;;;;;;;5044326;28;20156;-66
2023/04/01 15:00:55;;;;;;;1.58;1.08;;;;;;;;;;5044447;28;20095;-66
2023/04/01 15:03:24;;;;;;;0.90;0.90;;;;;;;;;;5045648;28;20072;-68
2023/04/01 15:05:55;;;;;;;1.08;0.98;;;;;;;;;;5044864;28;20381;-66
2023/04/01 15:08:25;;;;;;;2.65;1.20;;;;;;;;;;5045707;28;20491;-66
2023/04/01 15:10:51;;;;;;;1.58;1.30;;;;;;;;;;5045416;28;20052;-66
2023/04/01 15:13:26;;;;;;;1.33;1.10;;;;;;;;;;5045100;28;20049;-65
2023/04/01 15:15:52;;;;;;;1.17;1.08;;;;;;;;;;5045176;28;20487;-66